PWSweather.com
Personal Weather Stations
Station Observations
KCTCOLEB1
Sandy Brook, Colebrook, CT 06021

Sandy BrookColebrook, CT 06021

Lat: 42.0018, Lon: -73.0825

Elevation: 935

Station Type: Davis Vantage Pro2 + Solar + UV

Latest ConditionsUpdated 3:20:06 PM EDT Saturday, Apr 20, 2019
Currently Today's Max Today's Min Today's Average
Temperature 64.5°F18.1°C 64.6°F18.1°C 62.0°F16.7°C 63.3°F17.4°C
Dew Point 62.1°F16.7°C 63.7°F17.6°C 61.2°F16.2°C 62.2°F16.8°C
Winds 1.2 mph SE1.9 kmh SE 4.6 mph -7.4 kmh - - 1.2 mph 1.9 kmh
Wind Gusts 3.5 mph5.6 kmh 10.4 mph16.7 kmh - -
Humidity 92% 98% 92% 96%
Pressure 29.74 in1007.1 mb 29.77 in1008.1 mb 29.68 in1005.1 mb -
Precipitation - 1.17 in29.7 mm - -
Hour Temp Dew Point Humidity Winds Wind Gusts Pressure Precip Precip Rate Daily Precip Total
03:20 PM 64.5°F18.1°C 62.1°F16.7°C 92% 1.2 mph SE1.9 kmh SE 3.5 mph5.6 kmh 29.74 in1007.1 mb - 0.00 in0.0 mm 1.17 in29.7 mm
03:10 PM 64.5°F18.1°C 62.1°F16.7°C 92% 1.2 mph ESE1.9 kmh ESE 2.3 mph3.7 kmh 29.75 in1007.5 mb - 0.00 in0.0 mm 1.17 in29.7 mm
03:00 PM 64.5°F18.1°C 62.1°F16.7°C 92% 3.5 mph SW5.6 kmh SW 8.1 mph13.0 kmh 29.75 in1007.5 mb - 0.00 in0.0 mm 1.17 in29.7 mm
02:50 PM 64.4°F18.0°C 62.3°F16.8°C 93% Calm Calm 1.2 mph1.9 kmh 29.76 in1007.8 mb - 0.00 in0.0 mm 1.17 in29.7 mm
02:40 PM 64.2°F17.9°C 61.8°F16.6°C 92% 3.5 mph SW5.6 kmh SW 4.6 mph7.4 kmh 29.76 in1007.8 mb - 0.00 in0.0 mm 1.17 in29.7 mm
02:30 PM 64.2°F17.9°C 62.1°F16.7°C 93% 2.3 mph SE3.7 kmh SE 6.9 mph11.1 kmh 29.76 in1007.8 mb - 0.00 in0.0 mm 1.17 in29.7 mm
02:20 PM 64.1°F17.8°C 62.3°F16.8°C 94% 2.3 mph SW3.7 kmh SW 3.5 mph5.6 kmh 29.76 in1007.8 mb - 0.00 in0.0 mm 1.17 in29.7 mm
02:10 PM 64.2°F17.9°C 62.4°F16.9°C 94% 2.3 mph SSE3.7 kmh SSE 6.9 mph11.1 kmh 29.75 in1007.5 mb - 0.00 in0.0 mm 1.17 in29.7 mm
02:00 PM 64.3°F17.9°C 62.5°F16.9°C 94% Calm Calm 2.3 mph3.7 kmh 29.77 in1008.1 mb - 0.00 in0.0 mm 1.17 in29.7 mm
01:50 PM 64.3°F17.9°C 62.8°F17.1°C 95% 2.3 mph E3.7 kmh E 3.5 mph5.6 kmh 29.77 in1008.1 mb - 0.00 in0.0 mm 1.17 in29.7 mm
01:40 PM 64.2°F17.9°C 62.7°F17.1°C 95% 2.3 mph ESE3.7 kmh ESE 3.5 mph5.6 kmh 29.76 in1007.8 mb - 0.00 in0.0 mm 1.17 in29.7 mm
01:30 PM 64.1°F17.8°C 62.9°F17.2°C 96% 4.6 mph ESE7.4 kmh ESE 10.4 mph16.7 kmh 29.76 in1007.8 mb - 0.00 in0.0 mm 1.17 in29.7 mm
01:20 PM 64.0°F17.8°C 62.8°F17.1°C 96% 2.3 mph ESE3.7 kmh ESE 3.5 mph5.6 kmh 29.75 in1007.5 mb - 0.00 in0.0 mm 1.17 in29.7 mm
01:10 PM 64.0°F17.8°C 62.8°F17.1°C 96% 3.5 mph E5.6 kmh E 3.5 mph5.6 kmh 29.77 in1008.1 mb - 0.01 in0.3 mm 1.17 in29.7 mm
01:00 PM 64.2°F17.9°C 63.0°F17.2°C 96% 1.2 mph NE1.9 kmh NE 3.5 mph5.6 kmh 29.77 in1008.1 mb - 0.00 in0.0 mm 1.16 in29.5 mm
12:50 PM 64.3°F17.9°C 63.4°F17.4°C 97% 2.3 mph E3.7 kmh E 3.5 mph5.6 kmh 29.76 in1007.8 mb - 0.00 in0.0 mm 1.16 in29.5 mm
12:40 PM 64.3°F17.9°C 63.4°F17.4°C 97% 2.3 mph E3.7 kmh E 3.5 mph5.6 kmh 29.76 in1007.8 mb - 0.00 in0.0 mm 1.16 in29.5 mm
12:30 PM 64.3°F17.9°C 63.4°F17.4°C 97% 1.2 mph SW1.9 kmh SW 2.3 mph3.7 kmh 29.76 in1007.8 mb - 0.00 in0.0 mm 1.16 in29.5 mm
12:20 PM 64.2°F17.9°C 63.4°F17.4°C 97% 1.2 mph SE1.9 kmh SE 5.8 mph9.3 kmh 29.76 in1007.8 mb - 0.01 in0.3 mm 1.16 in29.5 mm
12:10 PM 64.1°F17.8°C 63.2°F17.3°C 97% 1.2 mph SW1.9 kmh SW 4.6 mph7.4 kmh 29.76 in1007.8 mb - 0.02 in0.5 mm 1.15 in29.2 mm
12:00 PM 64.0°F17.8°C 63.1°F17.3°C 97% 2.3 mph S3.7 kmh S 3.5 mph5.6 kmh 29.76 in1007.8 mb - 0.01 in0.3 mm 1.14 in29.0 mm
11:50 AM 64.0°F17.8°C 63.1°F17.3°C 97% 1.2 mph SE1.9 kmh SE 3.5 mph5.6 kmh 29.77 in1008.1 mb - 0.01 in0.3 mm 1.13 in28.7 mm
11:40 AM 63.9°F17.7°C 63.0°F17.2°C 97% Calm Calm 1.2 mph1.9 kmh 29.77 in1008.1 mb - 0.01 in0.3 mm 1.12 in28.4 mm
11:30 AM 63.9°F17.7°C 63.3°F17.4°C 98% 2.3 mph S3.7 kmh S 3.5 mph5.6 kmh 29.77 in1008.1 mb - 0.01 in0.3 mm 1.11 in28.2 mm
11:20 AM 64.0°F17.8°C 63.4°F17.4°C 98% 3.5 mph ESE5.6 kmh ESE 8.1 mph13.0 kmh 29.77 in1008.1 mb - 0.01 in0.3 mm 1.10 in27.9 mm
11:10 AM 63.9°F17.7°C 63.3°F17.4°C 98% 3.5 mph SSW5.6 kmh SSW 9.2 mph14.8 kmh 29.77 in1008.1 mb - 0.00 in0.0 mm 1.09 in27.7 mm
11:00 AM 63.6°F17.6°C 63.1°F17.3°C 98% 1.2 mph ESE1.9 kmh ESE 2.3 mph3.7 kmh 29.76 in1007.8 mb - 0.03 in0.8 mm 1.09 in27.7 mm
10:50 AM 63.4°F17.4°C 62.8°F17.1°C 98% 1.2 mph ESE1.9 kmh ESE 2.3 mph3.7 kmh 29.76 in1007.8 mb - 0.01 in0.3 mm 1.06 in26.9 mm
10:40 AM 63.2°F17.3°C 62.6°F17.0°C 98% 1.2 mph SSE1.9 kmh SSE 3.5 mph5.6 kmh 29.76 in1007.8 mb - 0.01 in0.3 mm 1.06 in26.9 mm
10:30 AM 62.8°F17.1°C 62.2°F16.8°C 98% 2.3 mph SSW3.7 kmh SSW 6.9 mph11.1 kmh 29.76 in1007.8 mb - 0.00 in0.0 mm 1.05 in26.7 mm
10:20 AM 62.5°F16.9°C 61.9°F16.6°C 98% 1.2 mph SSW1.9 kmh SSW 3.5 mph5.6 kmh 29.75 in1007.5 mb - 0.00 in0.0 mm 1.05 in26.7 mm
10:10 AM 62.2°F16.8°C 61.6°F16.4°C 98% Calm Calm -- 29.76 in1007.8 mb - 0.02 in0.5 mm 1.05 in26.7 mm
10:00 AM 62.1°F16.7°C 61.5°F16.4°C 98% Calm Calm 3.5 mph5.6 kmh 29.75 in1007.5 mb - 0.04 in1.0 mm 1.03 in26.2 mm
09:50 AM 62.0°F16.7°C 61.4°F16.3°C 98% Calm Calm -- 29.75 in1007.5 mb - 0.02 in0.5 mm 0.99 in25.1 mm
09:40 AM 62.1°F16.7°C 61.2°F16.2°C 97% Calm Calm 2.3 mph3.7 kmh 29.76 in1007.8 mb - 0.03 in0.8 mm 0.97 in24.6 mm
09:30 AM 62.2°F16.8°C 61.3°F16.3°C 97% 1.2 mph S1.9 kmh S 2.3 mph3.7 kmh 29.75 in1007.5 mb - 0.04 in1.0 mm 0.94 in23.9 mm
09:20 AM 62.2°F16.8°C 61.3°F16.3°C 97% Calm Calm -- 29.76 in1007.8 mb - 0.11 in2.8 mm 0.91 in23.1 mm
09:10 AM 62.3°F16.8°C 61.4°F16.3°C 97% Calm Calm -- 29.76 in1007.8 mb - 0.20 in5.1 mm 0.81 in20.6 mm
09:00 AM 62.3°F16.8°C 61.4°F16.3°C 97% 1.2 mph SW1.9 kmh SW 1.2 mph1.9 kmh 29.75 in1007.5 mb - 0.26 in6.6 mm 0.63 in16.0 mm
08:50 AM 62.4°F16.9°C 61.5°F16.4°C 97% Calm Calm -- 29.75 in1007.5 mb - 0.03 in0.8 mm 0.38 in9.7 mm
08:40 AM 62.4°F16.9°C 61.5°F16.4°C 97% 2.3 mph SE3.7 kmh SE 2.3 mph3.7 kmh 29.74 in1007.1 mb - 0.03 in0.8 mm 0.35 in8.9 mm
08:30 AM 62.3°F16.8°C 61.5°F16.4°C 97% 1.2 mph SSW1.9 kmh SSW 2.3 mph3.7 kmh 29.74 in1007.1 mb - 0.02 in0.5 mm 0.32 in8.1 mm
08:20 AM 62.4°F16.9°C 61.5°F16.4°C 97% Calm Calm 2.3 mph3.7 kmh 29.74 in1007.1 mb - 0.01 in0.3 mm 0.31 in7.9 mm
08:10 AM 62.4°F16.9°C 61.5°F16.4°C 97% Calm Calm -- 29.74 in1007.1 mb - 0.00 in0.0 mm 0.30 in7.6 mm
08:00 AM 62.4°F16.9°C 61.6°F16.4°C 97% Calm Calm 1.2 mph1.9 kmh 29.73 in1006.8 mb - 0.01 in0.3 mm 0.30 in7.6 mm
07:50 AM 62.3°F16.8°C 61.4°F16.3°C 97% Calm Calm 1.2 mph1.9 kmh 29.73 in1006.8 mb - 0.00 in0.0 mm 0.29 in7.4 mm
07:40 AM 62.2°F16.8°C 61.3°F16.3°C 97% Calm Calm 4.6 mph7.4 kmh 29.73 in1006.8 mb - 0.00 in0.0 mm 0.29 in7.4 mm
07:30 AM 62.3°F16.8°C 61.4°F16.3°C 97% 2.3 mph SW3.7 kmh SW 2.3 mph3.7 kmh 29.73 in1006.8 mb - 0.00 in0.0 mm 0.29 in7.4 mm
07:20 AM 62.3°F16.8°C 61.4°F16.3°C 97% Calm Calm 2.3 mph3.7 kmh 29.72 in1006.4 mb - 0.00 in0.0 mm 0.29 in7.4 mm
07:10 AM 62.3°F16.8°C 61.4°F16.3°C 97% 1.2 mph SE1.9 kmh SE 2.3 mph3.7 kmh 29.72 in1006.4 mb - 0.00 in0.0 mm 0.29 in7.4 mm
07:00 AM 62.4°F16.9°C 61.5°F16.4°C 97% 1.2 mph ESE1.9 kmh ESE 2.3 mph3.7 kmh 29.72 in1006.4 mb - 0.00 in0.0 mm 0.29 in7.4 mm
06:50 AM 62.4°F16.9°C 61.5°F16.4°C 97% 1.2 mph SSE1.9 kmh SSE 2.3 mph3.7 kmh 29.71 in1006.1 mb - 0.00 in0.0 mm 0.29 in7.4 mm
06:40 AM 62.4°F16.9°C 61.6°F16.4°C 97% 1.2 mph S1.9 kmh S 5.8 mph9.3 kmh 29.72 in1006.4 mb - 0.00 in0.0 mm 0.29 in7.4 mm
06:30 AM 62.5°F16.9°C 61.6°F16.4°C 97% 1.2 mph ESE1.9 kmh ESE 2.3 mph3.7 kmh 29.71 in1006.1 mb - 0.00 in0.0 mm 0.29 in7.4 mm
06:20 AM 62.5°F16.9°C 61.6°F16.4°C 97% Calm Calm -- 29.71 in1006.1 mb - 0.01 in0.3 mm 0.29 in7.4 mm
06:10 AM 62.4°F16.9°C 61.5°F16.4°C 97% 2.3 mph SE3.7 kmh SE 3.5 mph5.6 kmh 29.70 in1005.8 mb - 0.00 in0.0 mm 0.28 in7.1 mm
06:00 AM 62.5°F16.9°C 61.6°F16.4°C 97% 2.3 mph NNE3.7 kmh NNE 3.5 mph5.6 kmh 29.71 in1006.1 mb - 0.00 in0.0 mm 0.28 in7.1 mm
05:50 AM 62.4°F16.9°C 61.5°F16.4°C 97% Calm Calm -- 29.71 in1006.1 mb - 0.00 in0.0 mm 0.28 in7.1 mm
05:40 AM 62.3°F16.8°C 61.4°F16.3°C 97% 1.2 mph SE1.9 kmh SE 2.3 mph3.7 kmh 29.70 in1005.8 mb - 0.01 in0.3 mm 0.28 in7.1 mm
05:30 AM 62.3°F16.8°C 61.4°F16.3°C 97% 1.2 mph SE1.9 kmh SE 1.2 mph1.9 kmh 29.70 in1005.8 mb - 0.00 in0.0 mm 0.27 in6.9 mm
05:20 AM 62.4°F16.9°C 61.5°F16.4°C 97% Calm Calm 1.2 mph1.9 kmh 29.70 in1005.8 mb - 0.00 in0.0 mm 0.27 in6.9 mm
05:10 AM 62.3°F16.8°C 61.2°F16.2°C 96% Calm Calm -- 29.70 in1005.8 mb - 0.00 in0.0 mm 0.27 in6.9 mm
05:00 AM 62.3°F16.8°C 61.2°F16.2°C 96% 1.2 mph E1.9 kmh E 3.5 mph5.6 kmh 29.70 in1005.8 mb - 0.00 in0.0 mm 0.27 in6.9 mm
04:50 AM 62.4°F16.9°C 61.2°F16.2°C 96% Calm Calm -- 29.70 in1005.8 mb - 0.01 in0.3 mm 0.27 in6.9 mm
04:40 AM 62.5°F16.9°C 61.3°F16.3°C 96% 3.5 mph SW5.6 kmh SW 6.9 mph11.1 kmh 29.70 in1005.8 mb - 0.00 in0.0 mm 0.26 in6.6 mm
04:30 AM 62.5°F16.9°C 61.6°F16.4°C 97% Calm Calm 1.2 mph1.9 kmh 29.70 in1005.8 mb - 0.00 in0.0 mm 0.26 in6.6 mm
04:20 AM 62.6°F17.0°C 61.8°F16.6°C 97% Calm Calm 3.5 mph5.6 kmh 29.70 in1005.8 mb - 0.00 in0.0 mm 0.26 in6.6 mm
04:10 AM 62.7°F17.1°C 61.8°F16.6°C 97% Calm Calm 1.2 mph1.9 kmh 29.70 in1005.8 mb - 0.00 in0.0 mm 0.26 in6.6 mm
04:00 AM 62.9°F17.2°C 61.7°F16.5°C 96% Calm Calm 1.2 mph1.9 kmh 29.69 in1005.4 mb - 0.00 in0.0 mm 0.26 in6.6 mm
03:50 AM 63.1°F17.3°C 62.2°F16.8°C 97% 1.2 mph ESE1.9 kmh ESE 1.2 mph1.9 kmh 29.69 in1005.4 mb - 0.00 in0.0 mm 0.26 in6.6 mm
03:40 AM 63.2°F17.3°C 62.3°F16.8°C 97% 1.2 mph E1.9 kmh E 3.5 mph5.6 kmh 29.69 in1005.4 mb - 0.01 in0.3 mm 0.26 in6.6 mm
03:30 AM 63.3°F17.4°C 62.5°F16.9°C 97% 1.2 mph SE1.9 kmh SE 4.6 mph7.4 kmh 29.68 in1005.1 mb - 0.00 in0.0 mm 0.25 in6.4 mm
03:20 AM 63.6°F17.6°C 62.4°F16.9°C 96% 3.5 mph NE5.6 kmh NE 3.5 mph5.6 kmh 29.68 in1005.1 mb - 0.00 in0.0 mm 0.25 in6.4 mm
03:10 AM 63.9°F17.7°C 63.0°F17.2°C 97% Calm Calm 2.3 mph3.7 kmh 29.68 in1005.1 mb - 0.00 in0.0 mm 0.25 in6.4 mm
03:00 AM 64.0°F17.8°C 63.1°F17.3°C 97% Calm Calm -- 29.69 in1005.4 mb - 0.04 in1.0 mm 0.25 in6.4 mm
02:50 AM 64.0°F17.8°C 62.8°F17.1°C 96% Calm Calm -- 29.70 in1005.8 mb - 0.06 in1.5 mm 0.22 in5.6 mm
02:40 AM 64.1°F17.8°C 63.0°F17.2°C 96% Calm Calm 1.2 mph1.9 kmh 29.68 in1005.1 mb - 0.02 in0.5 mm 0.17 in4.3 mm
02:30 AM 64.4°F18.0°C 63.5°F17.5°C 97% 1.2 mph E1.9 kmh E 1.2 mph1.9 kmh 29.68 in1005.1 mb - 0.02 in0.5 mm 0.15 in3.8 mm
02:20 AM 64.5°F18.1°C 63.6°F17.6°C 97% Calm Calm 2.3 mph3.7 kmh 29.68 in1005.1 mb - 0.01 in0.3 mm 0.13 in3.3 mm
02:10 AM 64.6°F18.1°C 63.7°F17.6°C 97% Calm Calm 1.2 mph1.9 kmh 29.68 in1005.1 mb - 0.06 in1.5 mm 0.12 in3.0 mm
02:00 AM 64.5°F18.1°C 63.6°F17.6°C 97% 1.2 mph ENE1.9 kmh ENE 3.5 mph5.6 kmh 29.68 in1005.1 mb - 0.01 in0.3 mm 0.06 in1.5 mm
01:50 AM 64.3°F17.9°C 63.4°F17.4°C 97% 2.3 mph NNE3.7 kmh NNE 2.3 mph3.7 kmh 29.69 in1005.4 mb - 0.01 in0.3 mm 0.05 in1.3 mm
01:40 AM 64.1°F17.8°C 63.2°F17.3°C 97% 1.2 mph NNE1.9 kmh NNE 3.5 mph5.6 kmh 29.69 in1005.4 mb - 0.00 in0.0 mm 0.04 in1.0 mm
01:30 AM 63.8°F17.7°C 62.9°F17.2°C 97% 2.3 mph N3.7 kmh N 2.3 mph3.7 kmh 29.70 in1005.8 mb - 0.00 in0.0 mm 0.04 in1.0 mm
01:20 AM 63.4°F17.4°C 62.5°F16.9°C 97% 3.5 mph NE5.6 kmh NE 3.5 mph5.6 kmh 29.69 in1005.4 mb - 0.00 in0.0 mm 0.04 in1.0 mm
01:10 AM 63.5°F17.5°C 62.6°F17.0°C 97% Calm Calm -- 29.70 in1005.8 mb - 0.00 in0.0 mm 0.04 in1.0 mm
01:00 AM 63.4°F17.4°C 62.5°F16.9°C 97% 1.2 mph NW1.9 kmh NW 3.5 mph5.6 kmh 29.70 in1005.8 mb - 0.01 in0.3 mm 0.04 in1.0 mm
12:50 AM 63.4°F17.4°C 62.2°F16.8°C 96% Calm Calm -- 29.70 in1005.8 mb - 0.01 in0.3 mm 0.03 in0.8 mm
12:40 AM 63.4°F17.4°C 62.2°F16.8°C 96% Calm Calm 1.2 mph1.9 kmh 29.70 in1005.8 mb - 0.01 in0.3 mm 0.02 in0.5 mm
12:30 AM 63.3°F17.4°C 62.1°F16.7°C 96% 2.3 mph E3.7 kmh E 3.5 mph5.6 kmh 29.70 in1005.8 mb - 0.00 in0.0 mm 0.01 in0.3 mm
12:20 AM 63.2°F17.3°C 62.1°F16.7°C 96% Calm Calm -- 29.71 in1006.1 mb - 0.01 in0.3 mm 0.01 in0.3 mm
12:10 AM 63.3°F17.4°C 62.1°F16.7°C 96% 1.2 mph ESE1.9 kmh ESE 3.5 mph5.6 kmh 29.71 in1006.1 mb - 0.00 in0.0 mm 0.01 in0.3 mm
12:00 AM 63.3°F17.4°C 62.1°F16.7°C 96% Calm Calm -- 29.71 in1006.1 mb - 0.01 in0.3 mm 0.01 in0.3 mm